KTNU/TNU METAR and TAF weather

Enter ICAO airport designator
Station Type Date Time Source
KTNU METAR 2019/06/16 20:55 UTC NOAA

KTNU 162055Z AUTO 35008KT 10SM BKN027 BKN033 24/18 A2989 RMK AO2


Station Type Date Time Source
KTNU Decoded METAR 2019/06/16 20:55 UTC NOAA

Newton Municipal, IA, United States (KTNU) 41-41N 093-01W
Jun 16, 2019 - 04:55 PM EDT / 2019.06.16 2055 UTC
Wind: from the N (350 degrees) at 9 MPH (8 KT):0
Visibility: 10 mile(s):0
Sky conditions: mostly cloudy
Temperature: 75 F (24 C)
Dew Point: 64 F (18 C)
Relative Humidity: 69%
Pressure (altimeter): 29.89 in. Hg (1012 hPa)
ob: KTNU 162055Z AUTO 35008KT 10SM BKN027 BKN033 24/18 A2989 RMK AO2
cycle: 21

Station Type Date Time Source
KTNU TAF UTC NOAA

Error!

Example: see airport list